sensor_id;sensor_type;location;lat;lon;timestamp;temperature;humidity
9125;DHT22;4597;48.730;9.114;2024-03-06T00:00:25;6.20;99.90
9125;DHT22;4597;48.730;9.114;2024-03-06T00:02:51;6.20;99.90
9125;DHT22;4597;48.730;9.114;2024-03-06T00:05:16;6.20;99.90
9125;DHT22;4597;48.730;9.114;2024-03-06T00:07:42;6.20;99.90
9125;DHT22;4597;48.730;9.114;2024-03-06T00:10:08;6.30;99.90
9125;DHT22;4597;48.730;9.114;2024-03-06T00:12:34;6.30;99.90
9125;DHT22;4597;48.730;9.114;2024-03-06T00:14:59;6.30;99.90
9125;DHT22;4597;48.730;9.114;2024-03-06T00:17:25;6.20;99.90
9125;DHT22;4597;48.730;9.114;2024-03-06T00:19:52;6.20;99.90
9125;DHT22;4597;48.730;9.114;2024-03-06T00:22:17;6.20;99.90
9125;DHT22;4597;48.730;9.114;2024-03-06T00:24:43;6.20;99.90
9125;DHT22;4597;48.730;9.114;2024-03-06T00:27:09;6.10;99.90
9125;DHT22;4597;48.730;9.114;2024-03-06T00:29:35;6.10;99.90
9125;DHT22;4597;48.730;9.114;2024-03-06T00:32:03;6.10;99.90
9125;DHT22;4597;48.730;9.114;2024-03-06T00:34:29;6.00;99.90
9125;DHT22;4597;48.730;9.114;2024-03-06T00:36:54;5.90;99.90
9125;DHT22;4597;48.730;9.114;2024-03-06T00:39:20;6.00;99.90
9125;DHT22;4597;48.730;9.114;2024-03-06T00:41:46;6.00;99.90
9125;DHT22;4597;48.730;9.114;2024-03-06T00:44:11;6.10;99.90
9125;DHT22;4597;48.730;9.114;2024-03-06T00:46:37;6.10;99.90
9125;DHT22;4597;48.730;9.114;2024-03-06T00:49:03;6.20;99.90
9125;DHT22;4597;48.730;9.114;2024-03-06T00:51:29;6.30;99.90
9125;DHT22;4597;48.730;9.114;2024-03-06T00:53:54;6.40;99.90
9125;DHT22;4597;48.730;9.114;2024-03-06T00:56:20;6.40;99.90
9125;DHT22;4597;48.730;9.114;2024-03-06T00:58:45;6.30;99.90
9125;DHT22;4597;48.730;9.114;2024-03-06T01:01:11;6.20;99.90
9125;DHT22;4597;48.730;9.114;2024-03-06T01:03:37;6.10;99.90
9125;DHT22;4597;48.730;9.114;2024-03-06T01:06:03;6.10;99.90
9125;DHT22;4597;48.730;9.114;2024-03-06T01:08:28;6.10;99.90
9125;DHT22;4597;48.730;9.114;2024-03-06T01:10:55;6.10;99.90
9125;DHT22;4597;48.730;9.114;2024-03-06T01:13:21;6.00;99.90
9125;DHT22;4597;48.730;9.114;2024-03-06T01:15:46;5.90;99.90
9125;DHT22;4597;48.730;9.114;2024-03-06T01:18:12;5.90;99.90
9125;DHT22;4597;48.730;9.114;2024-03-06T01:20:38;5.90;99.90
9125;DHT22;4597;48.730;9.114;2024-03-06T01:23:04;5.90;99.90
9125;DHT22;4597;48.730;9.114;2024-03-06T01:25:29;6.00;99.90
9125;DHT22;4597;48.730;9.114;2024-03-06T01:27:55;6.00;99.90
9125;DHT22;4597;48.730;9.114;2024-03-06T01:30:21;6.00;99.90
9125;DHT22;4597;48.730;9.114;2024-03-06T01:32:46;6.10;99.90
9125;DHT22;4597;48.730;9.114;2024-03-06T01:35:12;6.00;99.90
9125;DHT22;4597;48.730;9.114;2024-03-06T01:37:37;6.00;99.90
9125;DHT22;4597;48.730;9.114;2024-03-06T01:40:03;6.00;99.90
9125;DHT22;4597;48.730;9.114;2024-03-06T01:42:30;6.00;99.90
9125;DHT22;4597;48.730;9.114;2024-03-06T01:44:55;6.10;99.90
9125;DHT22;4597;48.730;9.114;2024-03-06T01:47:21;6.10;99.90
9125;DHT22;4597;48.730;9.114;2024-03-06T01:49:47;6.10;99.90
9125;DHT22;4597;48.730;9.114;2024-03-06T01:52:14;6.10;99.90
9125;DHT22;4597;48.730;9.114;2024-03-06T01:54:40;6.20;99.90
9125;DHT22;4597;48.730;9.114;2024-03-06T01:57:07;6.20;99.90
9125;DHT22;4597;48.730;9.114;2024-03-06T01:59:33;6.20;99.90
9125;DHT22;4597;48.730;9.114;2024-03-06T02:02:00;6.20;99.90
9125;DHT22;4597;48.730;9.114;2024-03-06T02:04:26;6.30;99.90
9125;DHT22;4597;48.730;9.114;2024-03-06T02:06:53;6.30;99.90
9125;DHT22;4597;48.730;9.114;2024-03-06T02:09:19;6.30;99.90
9125;DHT22;4597;48.730;9.114;2024-03-06T02:11:45;6.40;99.90
9125;DHT22;4597;48.730;9.114;2024-03-06T02:14:10;6.40;99.90
9125;DHT22;4597;48.730;9.114;2024-03-06T02:16:36;6.40;99.90
9125;DHT22;4597;48.730;9.114;2024-03-06T02:19:04;6.30;99.90
9125;DHT22;4597;48.730;9.114;2024-03-06T02:21:30;6.30;99.90
9125;DHT22;4597;48.730;9.114;2024-03-06T02:23:55;6.20;99.90
9125;DHT22;4597;48.730;9.114;2024-03-06T02:26:22;6.20;99.90
9125;DHT22;4597;48.730;9.114;2024-03-06T02:28:52;6.20;99.90
9125;DHT22;4597;48.730;9.114;2024-03-06T02:31:18;6.20;99.90
9125;DHT22;4597;48.730;9.114;2024-03-06T02:33:45;6.20;99.90
9125;DHT22;4597;48.730;9.114;2024-03-06T02:36:12;6.20;99.90
9125;DHT22;4597;48.730;9.114;2024-03-06T02:38:38;6.20;99.90
9125;DHT22;4597;48.730;9.114;2024-03-06T02:41:03;6.20;99.90
9125;DHT22;4597;48.730;9.114;2024-03-06T02:43:29;6.20;99.90
9125;DHT22;4597;48.730;9.114;2024-03-06T02:45:54;6.10;99.90
9125;DHT22;4597;48.730;9.114;2024-03-06T02:48:20;6.10;99.90
9125;DHT22;4597;48.730;9.114;2024-03-06T02:50:45;6.10;99.90
9125;DHT22;4597;48.730;9.114;2024-03-06T02:53:11;6.10;99.90
9125;DHT22;4597;48.730;9.114;2024-03-06T02:55:37;6.20;99.90
9125;DHT22;4597;48.730;9.114;2024-03-06T02:58:03;6.20;99.90
9125;DHT22;4597;48.730;9.114;2024-03-06T03:00:29;6.30;99.90
9125;DHT22;4597;48.730;9.114;2024-03-06T03:02:55;6.30;99.90
9125;DHT22;4597;48.730;9.114;2024-03-06T03:05:21;6.40;99.90
9125;DHT22;4597;48.730;9.114;2024-03-06T03:07:46;6.40;99.90
9125;DHT22;4597;48.730;9.114;2024-03-06T03:10:12;6.40;99.90
9125;DHT22;4597;48.730;9.114;2024-03-06T03:12:38;6.40;99.90
9125;DHT22;4597;48.730;9.114;2024-03-06T03:15:05;6.50;99.90
9125;DHT22;4597;48.730;9.114;2024-03-06T03:17:32;6.50;99.90
9125;DHT22;4597;48.730;9.114;2024-03-06T03:19:58;6.50;99.90
9125;DHT22;4597;48.730;9.114;2024-03-06T03:22:23;6.50;99.90
9125;DHT22;4597;48.730;9.114;2024-03-06T03:24:49;6.50;99.90
9125;DHT22;4597;48.730;9.114;2024-03-06T03:27:14;6.40;99.90
9125;DHT22;4597;48.730;9.114;2024-03-06T03:29:40;6.40;99.90
9125;DHT22;4597;48.730;9.114;2024-03-06T03:32:06;6.40;99.90
9125;DHT22;4597;48.730;9.114;2024-03-06T03:34:34;6.40;99.90
9125;DHT22;4597;48.730;9.114;2024-03-06T03:36:59;6.40;99.90
9125;DHT22;4597;48.730;9.114;2024-03-06T03:39:25;6.40;99.90
9125;DHT22;4597;48.730;9.114;2024-03-06T03:41:52;6.30;99.90
9125;DHT22;4597;48.730;9.114;2024-03-06T03:44:18;6.30;99.90
9125;DHT22;4597;48.730;9.114;2024-03-06T03:46:45;6.30;99.90
9125;DHT22;4597;48.730;9.114;2024-03-06T03:49:11;6.30;99.90
9125;DHT22;4597;48.730;9.114;2024-03-06T03:51:38;6.30;99.90
9125;DHT22;4597;48.730;9.114;2024-03-06T03:54:04;6.30;99.90
9125;DHT22;4597;48.730;9.114;2024-03-06T03:56:30;6.30;99.90
9125;DHT22;4597;48.730;9.114;2024-03-06T03:58:58;6.30;99.90
9125;DHT22;4597;48.730;9.114;2024-03-06T04:01:24;6.30;99.90
9125;DHT22;4597;48.730;9.114;2024-03-06T04:03:50;6.40;99.90
9125;DHT22;4597;48.730;9.114;2024-03-06T04:06:16;6.30;99.90
9125;DHT22;4597;48.730;9.114;2024-03-06T04:08:42;6.20;99.90
9125;DHT22;4597;48.730;9.114;2024-03-06T04:11:08;6.10;99.90
9125;DHT22;4597;48.730;9.114;2024-03-06T04:13:37;6.10;99.90
9125;DHT22;4597;48.730;9.114;2024-03-06T04:16:03;6.00;99.90
9125;DHT22;4597;48.730;9.114;2024-03-06T04:18:29;5.90;99.90
9125;DHT22;4597;48.730;9.114;2024-03-06T04:20:59;5.90;99.90
9125;DHT22;4597;48.730;9.114;2024-03-06T04:23:27;5.90;99.90
9125;DHT22;4597;48.730;9.114;2024-03-06T04:25:52;5.90;99.90
9125;DHT22;4597;48.730;9.114;2024-03-06T04:28:18;6.00;99.90
9125;DHT22;4597;48.730;9.114;2024-03-06T04:30:43;6.00;99.90
9125;DHT22;4597;48.730;9.114;2024-03-06T04:33:09;6.00;99.90
9125;DHT22;4597;48.730;9.114;2024-03-06T04:35:39;6.10;99.90
9125;DHT22;4597;48.730;9.114;2024-03-06T04:38:04;6.10;99.90
9125;DHT22;4597;48.730;9.114;2024-03-06T04:40:31;6.10;99.90
9125;DHT22;4597;48.730;9.114;2024-03-06T04:42:56;6.20;99.90
9125;DHT22;4597;48.730;9.114;2024-03-06T04:45:22;6.20;99.90
9125;DHT22;4597;48.730;9.114;2024-03-06T04:47:48;6.20;99.90
9125;DHT22;4597;48.730;9.114;2024-03-06T04:50:13;6.30;99.90
9125;DHT22;4597;48.730;9.114;2024-03-06T04:52:43;6.30;99.90
9125;DHT22;4597;48.730;9.114;2024-03-06T04:55:10;6.30;99.90
9125;DHT22;4597;48.730;9.114;2024-03-06T04:57:39;6.40;99.90
9125;DHT22;4597;48.730;9.114;2024-03-06T05:00:09;6.40;99.90
9125;DHT22;4597;48.730;9.114;2024-03-06T05:02:35;6.40;99.90
9125;DHT22;4597;48.730;9.114;2024-03-06T05:05:02;6.40;99.90
9125;DHT22;4597;48.730;9.114;2024-03-06T05:07:28;6.40;99.90
9125;DHT22;4597;48.730;9.114;2024-03-06T05:09:54;6.40;99.90
9125;DHT22;4597;48.730;9.114;2024-03-06T05:12:20;6.40;99.90
9125;DHT22;4597;48.730;9.114;2024-03-06T05:14:45;6.40;99.90
9125;DHT22;4597;48.730;9.114;2024-03-06T05:17:11;6.30;99.90
9125;DHT22;4597;48.730;9.114;2024-03-06T05:19:36;6.40;99.90
9125;DHT22;4597;48.730;9.114;2024-03-06T05:22:03;6.40;99.90
9125;DHT22;4597;48.730;9.114;2024-03-06T05:24:29;6.50;99.90
9125;DHT22;4597;48.730;9.114;2024-03-06T05:26:55;6.50;99.90
9125;DHT22;4597;48.730;9.114;2024-03-06T05:29:20;6.40;99.90
9125;DHT22;4597;48.730;9.114;2024-03-06T05:31:46;6.50;99.90
9125;DHT22;4597;48.730;9.114;2024-03-06T05:34:11;6.40;99.90
9125;DHT22;4597;48.730;9.114;2024-03-06T05:36:37;6.50;99.90
9125;DHT22;4597;48.730;9.114;2024-03-06T05:39:02;6.50;99.90
9125;DHT22;4597;48.730;9.114;2024-03-06T05:41:32;6.40;99.90
9125;DHT22;4597;48.730;9.114;2024-03-06T05:43:58;6.40;99.90
9125;DHT22;4597;48.730;9.114;2024-03-06T05:46:23;6.40;99.90
9125;DHT22;4597;48.730;9.114;2024-03-06T05:48:49;6.50;99.90
9125;DHT22;4597;48.730;9.114;2024-03-06T05:51:16;6.40;99.90
9125;DHT22;4597;48.730;9.114;2024-03-06T05:53:42;6.40;99.90
9125;DHT22;4597;48.730;9.114;2024-03-06T05:56:09;6.30;99.90
9125;DHT22;4597;48.730;9.114;2024-03-06T05:58:34;6.30;99.90
9125;DHT22;4597;48.730;9.114;2024-03-06T06:01:00;6.30;99.90
9125;DHT22;4597;48.730;9.114;2024-03-06T06:03:29;6.30;99.90
9125;DHT22;4597;48.730;9.114;2024-03-06T06:05:56;6.30;99.90
9125;DHT22;4597;48.730;9.114;2024-03-06T06:08:21;6.10;99.90
9125;DHT22;4597;48.730;9.114;2024-03-06T06:10:47;6.00;99.90
9125;DHT22;4597;48.730;9.114;2024-03-06T06:13:13;6.00;99.90
9125;DHT22;4597;48.730;9.114;2024-03-06T06:15:38;6.10;99.90
9125;DHT22;4597;48.730;9.114;2024-03-06T06:18:04;6.10;99.90
9125;DHT22;4597;48.730;9.114;2024-03-06T06:20:30;6.10;99.90
9125;DHT22;4597;48.730;9.114;2024-03-06T06:22:55;6.20;99.90
9125;DHT22;4597;48.730;9.114;2024-03-06T06:25:22;6.20;99.90
9125;DHT22;4597;48.730;9.114;2024-03-06T06:27:47;6.30;99.90
9125;DHT22;4597;48.730;9.114;2024-03-06T06:30:15;6.20;99.90
9125;DHT22;4597;48.730;9.114;2024-03-06T06:32:41;6.20;99.90
9125;DHT22;4597;48.730;9.114;2024-03-06T06:35:07;6.20;99.90
9125;DHT22;4597;48.730;9.114;2024-03-06T06:37:33;6.30;99.90
9125;DHT22;4597;48.730;9.114;2024-03-06T06:39:59;6.40;99.90
9125;DHT22;4597;48.730;9.114;2024-03-06T06:42:25;6.40;99.90
9125;DHT22;4597;48.730;9.114;2024-03-06T06:44:50;6.40;99.90
9125;DHT22;4597;48.730;9.114;2024-03-06T06:47:16;6.40;99.90
9125;DHT22;4597;48.730;9.114;2024-03-06T06:49:42;6.40;99.90
9125;DHT22;4597;48.730;9.114;2024-03-06T06:52:07;6.40;99.90
9125;DHT22;4597;48.730;9.114;2024-03-06T06:54:33;6.40;99.90
9125;DHT22;4597;48.730;9.114;2024-03-06T06:56:59;6.50;99.90
9125;DHT22;4597;48.730;9.114;2024-03-06T06:59:24;6.50;99.90
9125;DHT22;4597;48.730;9.114;2024-03-06T07:01:49;6.60;99.90
9125;DHT22;4597;48.730;9.114;2024-03-06T07:04:15;6.60;99.90
9125;DHT22;4597;48.730;9.114;2024-03-06T07:06:45;6.60;99.90
9125;DHT22;4597;48.730;9.114;2024-03-06T07:09:12;6.60;99.90
9125;DHT22;4597;48.730;9.114;2024-03-06T07:11:37;6.50;99.90
9125;DHT22;4597;48.730;9.114;2024-03-06T07:14:03;6.60;99.90
9125;DHT22;4597;48.730;9.114;2024-03-06T07:16:28;6.60;99.90
9125;DHT22;4597;48.730;9.114;2024-03-06T07:18:54;6.70;99.90
9125;DHT22;4597;48.730;9.114;2024-03-06T07:21:19;6.60;99.90
9125;DHT22;4597;48.730;9.114;2024-03-06T07:23:45;6.60;99.90
9125;DHT22;4597;48.730;9.114;2024-03-06T07:26:10;6.70;99.90
9125;DHT22;4597;48.730;9.114;2024-03-06T07:28:36;6.70;99.90
9125;DHT22;4597;48.730;9.114;2024-03-06T07:31:03;6.80;99.90
9125;DHT22;4597;48.730;9.114;2024-03-06T07:33:28;6.70;99.90
9125;DHT22;4597;48.730;9.114;2024-03-06T07:35:54;6.70;99.90
9125;DHT22;4597;48.730;9.114;2024-03-06T07:38:20;6.70;99.90
9125;DHT22;4597;48.730;9.114;2024-03-06T07:40:46;6.80;99.90
9125;DHT22;4597;48.730;9.114;2024-03-06T07:43:11;6.90;99.90
9125;DHT22;4597;48.730;9.114;2024-03-06T07:45:37;6.90;99.90
9125;DHT22;4597;48.730;9.114;2024-03-06T07:48:03;7.00;99.90
9125;DHT22;4597;48.730;9.114;2024-03-06T07:50:29;6.90;99.90
9125;DHT22;4597;48.730;9.114;2024-03-06T07:52:54;6.90;99.90
9125;DHT22;4597;48.730;9.114;2024-03-06T07:55:20;7.00;99.90
9125;DHT22;4597;48.730;9.114;2024-03-06T07:57:47;6.90;99.90
9125;DHT22;4597;48.730;9.114;2024-03-06T08:00:13;6.80;99.90
9125;DHT22;4597;48.730;9.114;2024-03-06T08:02:45;6.80;99.90
9125;DHT22;4597;48.730;9.114;2024-03-06T08:05:15;6.80;99.90
9125;DHT22;4597;48.730;9.114;2024-03-06T08:07:41;6.80;99.90
9125;DHT22;4597;48.730;9.114;2024-03-06T08:10:09;6.90;99.90
9125;DHT22;4597;48.730;9.114;2024-03-06T08:12:41;7.00;99.90
9125;DHT22;4597;48.730;9.114;2024-03-06T08:15:09;7.00;99.90
9125;DHT22;4597;48.730;9.114;2024-03-06T08:17:35;7.00;99.90
9125;DHT22;4597;48.730;9.114;2024-03-06T08:20:02;7.00;99.90
9125;DHT22;4597;48.730;9.114;2024-03-06T08:22:31;7.10;99.90
9125;DHT22;4597;48.730;9.114;2024-03-06T08:24:57;7.10;99.90
9125;DHT22;4597;48.730;9.114;2024-03-06T08:27:22;7.20;99.90
9125;DHT22;4597;48.730;9.114;2024-03-06T08:29:48;7.20;99.90
9125;DHT22;4597;48.730;9.114;2024-03-06T08:32:13;7.30;99.90
9125;DHT22;4597;48.730;9.114;2024-03-06T08:34:39;7.30;99.90
9125;DHT22;4597;48.730;9.114;2024-03-06T08:37:04;7.30;99.90
9125;DHT22;4597;48.730;9.114;2024-03-06T08:39:31;7.20;99.90
9125;DHT22;4597;48.730;9.114;2024-03-06T08:41:57;7.10;99.90
9125;DHT22;4597;48.730;9.114;2024-03-06T08:44:23;7.20;99.90
9125;DHT22;4597;48.730;9.114;2024-03-06T08:46:48;7.20;99.90
9125;DHT22;4597;48.730;9.114;2024-03-06T08:49:14;7.10;99.90
9125;DHT22;4597;48.730;9.114;2024-03-06T08:51:39;7.10;99.90
9125;DHT22;4597;48.730;9.114;2024-03-06T08:54:05;7.20;99.90
9125;DHT22;4597;48.730;9.114;2024-03-06T08:56:30;7.20;99.90
9125;DHT22;4597;48.730;9.114;2024-03-06T08:58:56;7.20;99.90
9125;DHT22;4597;48.730;9.114;2024-03-06T09:01:21;7.30;99.90
9125;DHT22;4597;48.730;9.114;2024-03-06T09:03:47;7.30;99.90
9125;DHT22;4597;48.730;9.114;2024-03-06T09:06:12;7.40;99.90
9125;DHT22;4597;48.730;9.114;2024-03-06T09:08:38;7.40;99.90
9125;DHT22;4597;48.730;9.114;2024-03-06T09:11:03;7.40;99.90
9125;DHT22;4597;48.730;9.114;2024-03-06T09:13:29;7.40;99.90
9125;DHT22;4597;48.730;9.114;2024-03-06T09:15:54;7.50;99.90
9125;DHT22;4597;48.730;9.114;2024-03-06T09:18:20;7.40;99.90
9125;DHT22;4597;48.730;9.114;2024-03-06T09:20:46;7.50;99.90
9125;DHT22;4597;48.730;9.114;2024-03-06T09:23:11;7.50;99.90
9125;DHT22;4597;48.730;9.114;2024-03-06T09:25:37;7.50;99.90
9125;DHT22;4597;48.730;9.114;2024-03-06T09:28:03;7.50;99.90
9125;DHT22;4597;48.730;9.114;2024-03-06T09:30:30;7.60;99.90
9125;DHT22;4597;48.730;9.114;2024-03-06T09:32:56;7.80;99.90
9125;DHT22;4597;48.730;9.114;2024-03-06T09:35:21;7.90;99.90
9125;DHT22;4597;48.730;9.114;2024-03-06T09:37:47;7.90;99.90
9125;DHT22;4597;48.730;9.114;2024-03-06T09:40:20;7.90;99.90
9125;DHT22;4597;48.730;9.114;2024-03-06T09:42:46;7.90;99.90
9125;DHT22;4597;48.730;9.114;2024-03-06T09:45:12;8.00;99.90
9125;DHT22;4597;48.730;9.114;2024-03-06T09:47:38;8.10;99.90
9125;DHT22;4597;48.730;9.114;2024-03-06T09:50:09;8.00;99.90
9125;DHT22;4597;48.730;9.114;2024-03-06T09:52:36;8.00;99.90
9125;DHT22;4597;48.730;9.114;2024-03-06T09:55:01;7.90;99.90
9125;DHT22;4597;48.730;9.114;2024-03-06T09:57:28;8.00;99.90
9125;DHT22;4597;48.730;9.114;2024-03-06T09:59:53;7.90;99.90
9125;DHT22;4597;48.730;9.114;2024-03-06T10:04:57;7.80;99.90
9125;DHT22;4597;48.730;9.114;2024-03-06T10:07:23;7.90;99.90
9125;DHT22;4597;48.730;9.114;2024-03-06T10:09:49;7.80;99.90
9125;DHT22;4597;48.730;9.114;2024-03-06T10:12:18;7.80;99.90
9125;DHT22;4597;48.730;9.114;2024-03-06T10:14:51;7.90;99.90
9125;DHT22;4597;48.730;9.114;2024-03-06T10:17:21;7.80;99.90
9125;DHT22;4597;48.730;9.114;2024-03-06T10:19:48;7.80;99.90
9125;DHT22;4597;48.730;9.114;2024-03-06T10:22:17;7.90;99.90
9125;DHT22;4597;48.730;9.114;2024-03-06T10:24:43;8.00;99.90
9125;DHT22;4597;48.730;9.114;2024-03-06T10:27:14;8.00;99.90
9125;DHT22;4597;48.730;9.114;2024-03-06T10:29:40;8.00;99.90
9125;DHT22;4597;48.730;9.114;2024-03-06T10:32:06;8.10;99.90
9125;DHT22;4597;48.730;9.114;2024-03-06T10:34:33;8.10;99.90
9125;DHT22;4597;48.730;9.114;2024-03-06T10:37:01;8.10;99.90
9125;DHT22;4597;48.730;9.114;2024-03-06T10:39:30;8.10;99.90
9125;DHT22;4597;48.730;9.114;2024-03-06T10:41:57;8.10;99.90
9125;DHT22;4597;48.730;9.114;2024-03-06T10:44:26;8.20;99.90
9125;DHT22;4597;48.730;9.114;2024-03-06T10:47:00;8.20;99.90
9125;DHT22;4597;48.730;9.114;2024-03-06T10:49:26;8.10;99.90
9125;DHT22;4597;48.730;9.114;2024-03-06T10:51:57;8.10;99.90
9125;DHT22;4597;48.730;9.114;2024-03-06T10:54:23;8.00;99.90
9125;DHT22;4597;48.730;9.114;2024-03-06T10:56:51;7.90;99.90
9125;DHT22;4597;48.730;9.114;2024-03-06T10:59:19;7.90;99.90
9125;DHT22;4597;48.730;9.114;2024-03-06T11:01:46;7.90;99.90
9125;DHT22;4597;48.730;9.114;2024-03-06T11:04:13;7.90;99.90
9125;DHT22;4597;48.730;9.114;2024-03-06T11:06:38;8.00;99.90
9125;DHT22;4597;48.730;9.114;2024-03-06T11:09:04;8.00;99.90
9125;DHT22;4597;48.730;9.114;2024-03-06T11:11:31;8.00;99.90
9125;DHT22;4597;48.730;9.114;2024-03-06T11:14:01;8.10;99.90
9125;DHT22;4597;48.730;9.114;2024-03-06T11:16:31;8.10;99.90
9125;DHT22;4597;48.730;9.114;2024-03-06T11:19:06;8.20;99.90
9125;DHT22;4597;48.730;9.114;2024-03-06T11:21:35;8.30;99.90
9125;DHT22;4597;48.730;9.114;2024-03-06T11:24:18;8.20;99.90
9125;DHT22;4597;48.730;9.114;2024-03-06T11:26:59;8.20;99.90
9125;DHT22;4597;48.730;9.114;2024-03-06T11:29:28;8.20;99.90
9125;DHT22;4597;48.730;9.114;2024-03-06T11:32:02;8.20;99.90
9125;DHT22;4597;48.730;9.114;2024-03-06T11:34:28;8.20;99.90
9125;DHT22;4597;48.730;9.114;2024-03-06T11:36:58;8.30;99.90
9125;DHT22;4597;48.730;9.114;2024-03-06T11:39:28;8.40;99.90
9125;DHT22;4597;48.730;9.114;2024-03-06T11:41:54;8.40;99.90
9125;DHT22;4597;48.730;9.114;2024-03-06T11:44:22;8.40;99.90
9125;DHT22;4597;48.730;9.114;2024-03-06T11:49:22;8.40;99.90
9125;DHT22;4597;48.730;9.114;2024-03-06T11:51:51;8.40;99.90
9125;DHT22;4597;48.730;9.114;2024-03-06T11:54:17;8.40;99.90
9125;DHT22;4597;48.730;9.114;2024-03-06T11:56:50;8.40;99.90
9125;DHT22;4597;48.730;9.114;2024-03-06T11:59:17;8.40;99.90
9125;DHT22;4597;48.730;9.114;2024-03-06T12:01:42;8.40;99.90
9125;DHT22;4597;48.730;9.114;2024-03-06T12:04:08;8.40;99.90
9125;DHT22;4597;48.730;9.114;2024-03-06T12:06:35;8.50;99.90
9125;DHT22;4597;48.730;9.114;2024-03-06T12:09:01;8.60;99.90
9125;DHT22;4597;48.730;9.114;2024-03-06T12:11:26;8.60;99.90
9125;DHT22;4597;48.730;9.114;2024-03-06T12:13:53;8.60;99.90
9125;DHT22;4597;48.730;9.114;2024-03-06T12:16:19;8.60;99.90
9125;DHT22;4597;48.730;9.114;2024-03-06T12:18:45;8.60;99.90
9125;DHT22;4597;48.730;9.114;2024-03-06T12:21:11;8.50;99.90
9125;DHT22;4597;48.730;9.114;2024-03-06T12:23:38;8.50;99.90
9125;DHT22;4597;48.730;9.114;2024-03-06T12:26:08;8.50;99.90
9125;DHT22;4597;48.730;9.114;2024-03-06T12:28:35;8.60;99.90
9125;DHT22;4597;48.730;9.114;2024-03-06T12:31:04;8.60;99.90
9125;DHT22;4597;48.730;9.114;2024-03-06T12:33:31;8.50;99.90
9125;DHT22;4597;48.730;9.114;2024-03-06T12:36:14;8.50;99.90
9125;DHT22;4597;48.730;9.114;2024-03-06T12:38:40;8.40;99.90
9125;DHT22;4597;48.730;9.114;2024-03-06T12:41:05;8.30;99.90
9125;DHT22;4597;48.730;9.114;2024-03-06T12:43:31;8.30;99.90
9125;DHT22;4597;48.730;9.114;2024-03-06T12:45:58;8.30;99.90
9125;DHT22;4597;48.730;9.114;2024-03-06T12:48:24;8.30;99.90
9125;DHT22;4597;48.730;9.114;2024-03-06T12:50:51;8.30;99.90
9125;DHT22;4597;48.730;9.114;2024-03-06T12:53:21;8.40;99.90
9125;DHT22;4597;48.730;9.114;2024-03-06T12:55:47;8.40;99.90
9125;DHT22;4597;48.730;9.114;2024-03-06T12:58:13;8.40;99.90
9125;DHT22;4597;48.730;9.114;2024-03-06T13:00:39;8.40;99.90
9125;DHT22;4597;48.730;9.114;2024-03-06T13:03:05;8.30;99.90
9125;DHT22;4597;48.730;9.114;2024-03-06T13:05:31;8.30;99.90
9125;DHT22;4597;48.730;9.114;2024-03-06T13:07:57;8.30;99.90
9125;DHT22;4597;48.730;9.114;2024-03-06T13:10:22;8.30;99.90
9125;DHT22;4597;48.730;9.114;2024-03-06T13:12:48;8.30;99.90
9125;DHT22;4597;48.730;9.114;2024-03-06T13:15:14;8.20;99.90
9125;DHT22;4597;48.730;9.114;2024-03-06T13:17:39;8.20;99.90
9125;DHT22;4597;48.730;9.114;2024-03-06T13:20:06;8.30;99.90
9125;DHT22;4597;48.730;9.114;2024-03-06T13:22:34;8.30;99.90
9125;DHT22;4597;48.730;9.114;2024-03-06T13:25:00;8.40;99.90
9125;DHT22;4597;48.730;9.114;2024-03-06T13:27:25;8.40;99.90
9125;DHT22;4597;48.730;9.114;2024-03-06T13:29:51;8.40;99.90
9125;DHT22;4597;48.730;9.114;2024-03-06T13:32:17;8.50;99.90
9125;DHT22;4597;48.730;9.114;2024-03-06T13:34:42;8.50;99.90
9125;DHT22;4597;48.730;9.114;2024-03-06T13:37:09;8.50;99.90
9125;DHT22;4597;48.730;9.114;2024-03-06T13:39:35;8.50;99.90
9125;DHT22;4597;48.730;9.114;2024-03-06T13:42:01;8.50;99.90
9125;DHT22;4597;48.730;9.114;2024-03-06T13:44:26;8.50;99.90
9125;DHT22;4597;48.730;9.114;2024-03-06T13:46:52;8.70;99.90
9125;DHT22;4597;48.730;9.114;2024-03-06T13:49:37;8.60;99.90
9125;DHT22;4597;48.730;9.114;2024-03-06T13:52:04;8.60;99.90
9125;DHT22;4597;48.730;9.114;2024-03-06T13:54:37;8.60;99.90
9125;DHT22;4597;48.730;9.114;2024-03-06T13:57:03;8.60;99.90
9125;DHT22;4597;48.730;9.114;2024-03-06T13:59:30;8.70;99.90
9125;DHT22;4597;48.730;9.114;2024-03-06T14:01:56;8.70;99.90
9125;DHT22;4597;48.730;9.114;2024-03-06T14:04:22;8.60;99.90
9125;DHT22;4597;48.730;9.114;2024-03-06T14:06:47;8.50;99.90
9125;DHT22;4597;48.730;9.114;2024-03-06T14:09:14;8.50;99.90
9125;DHT22;4597;48.730;9.114;2024-03-06T14:11:39;8.40;99.90
9125;DHT22;4597;48.730;9.114;2024-03-06T14:14:05;8.40;99.90
9125;DHT22;4597;48.730;9.114;2024-03-06T14:16:31;8.40;99.90
9125;DHT22;4597;48.730;9.114;2024-03-06T14:18:56;8.40;99.90
9125;DHT22;4597;48.730;9.114;2024-03-06T14:21:22;8.40;99.90
9125;DHT22;4597;48.730;9.114;2024-03-06T14:23:48;8.30;99.90
9125;DHT22;4597;48.730;9.114;2024-03-06T14:26:14;8.30;99.90
9125;DHT22;4597;48.730;9.114;2024-03-06T14:28:40;8.40;99.90
9125;DHT22;4597;48.730;9.114;2024-03-06T14:31:05;8.20;99.90
9125;DHT22;4597;48.730;9.114;2024-03-06T14:33:31;8.10;99.90
9125;DHT22;4597;48.730;9.114;2024-03-06T14:35:57;8.10;99.90
9125;DHT22;4597;48.730;9.114;2024-03-06T14:38:22;8.20;99.90
9125;DHT22;4597;48.730;9.114;2024-03-06T14:40:48;8.10;99.90
9125;DHT22;4597;48.730;9.114;2024-03-06T14:43:13;8.10;99.90
9125;DHT22;4597;48.730;9.114;2024-03-06T14:45:39;8.10;99.90
9125;DHT22;4597;48.730;9.114;2024-03-06T14:48:08;8.00;99.90
9125;DHT22;4597;48.730;9.114;2024-03-06T14:50:33;8.00;99.90
9125;DHT22;4597;48.730;9.114;2024-03-06T14:52:59;8.00;99.90
9125;DHT22;4597;48.730;9.114;2024-03-06T14:55:24;8.10;99.90
9125;DHT22;4597;48.730;9.114;2024-03-06T14:57:50;8.00;99.90
9125;DHT22;4597;48.730;9.114;2024-03-06T15:00:16;8.10;99.90
9125;DHT22;4597;48.730;9.114;2024-03-06T15:02:46;8.10;99.90
9125;DHT22;4597;48.730;9.114;2024-03-06T15:05:12;8.10;99.90
9125;DHT22;4597;48.730;9.114;2024-03-06T15:07:38;8.10;99.90
9125;DHT22;4597;48.730;9.114;2024-03-06T15:10:07;8.00;99.90
9125;DHT22;4597;48.730;9.114;2024-03-06T15:12:35;8.10;99.90
9125;DHT22;4597;48.730;9.114;2024-03-06T15:15:04;8.00;99.90
9125;DHT22;4597;48.730;9.114;2024-03-06T15:17:32;8.00;99.90
9125;DHT22;4597;48.730;9.114;2024-03-06T15:19:58;8.00;99.90
9125;DHT22;4597;48.730;9.114;2024-03-06T15:22:23;8.00;99.90
9125;DHT22;4597;48.730;9.114;2024-03-06T15:24:49;8.00;99.90
9125;DHT22;4597;48.730;9.114;2024-03-06T15:27:17;8.10;99.90
9125;DHT22;4597;48.730;9.114;2024-03-06T15:29:43;8.10;99.90
9125;DHT22;4597;48.730;9.114;2024-03-06T15:32:11;8.10;99.90
9125;DHT22;4597;48.730;9.114;2024-03-06T15:34:37;8.10;99.90
9125;DHT22;4597;48.730;9.114;2024-03-06T15:37:02;8.30;99.90
9125;DHT22;4597;48.730;9.114;2024-03-06T15:39:28;8.30;99.90
9125;DHT22;4597;48.730;9.114;2024-03-06T15:41:54;8.30;99.90
9125;DHT22;4597;48.730;9.114;2024-03-06T15:44:21;8.30;99.90
9125;DHT22;4597;48.730;9.114;2024-03-06T15:46:46;8.20;99.90
9125;DHT22;4597;48.730;9.114;2024-03-06T15:49:30;8.30;99.90
9125;DHT22;4597;48.730;9.114;2024-03-06T15:51:55;8.30;99.90
9125;DHT22;4597;48.730;9.114;2024-03-06T15:54:21;8.30;99.90
9125;DHT22;4597;48.730;9.114;2024-03-06T15:56:47;8.20;99.90
9125;DHT22;4597;48.730;9.114;2024-03-06T15:59:12;8.20;99.90
9125;DHT22;4597;48.730;9.114;2024-03-06T16:01:38;8.20;99.90
9125;DHT22;4597;48.730;9.114;2024-03-06T16:04:03;8.20;99.90
9125;DHT22;4597;48.730;9.114;2024-03-06T16:06:30;8.10;99.90
9125;DHT22;4597;48.730;9.114;2024-03-06T16:08:57;8.20;99.90
9125;DHT22;4597;48.730;9.114;2024-03-06T16:11:23;8.10;99.90
9125;DHT22;4597;48.730;9.114;2024-03-06T16:13:48;8.10;99.90
9125;DHT22;4597;48.730;9.114;2024-03-06T16:16:14;8.10;99.90